Time;durP1;ratioP1;P1;durP2;ratioP2;P2;SDS_P1;SDS_P2;PMS_P1;PMS_P2;Temp;Humidity;BMP_temperature;BMP_pressure;BME280_temperature;BME280_humidity;BME280_pressure;Samples;Min_cycle;Max_cycle;Signal;HPM_P1;HPM_P2
2023/01/22 00:01:16;;;;;;;31.17;18.00;;;4.00;99.90;;;;;;4902823;29;20431;-74
2023/01/22 00:03:42;;;;;;;26.10;15.27;;;4.00;99.90;;;;;;4904649;29;20486;-74
2023/01/22 00:06:10;;;;;;;30.93;15.97;;;4.00;99.90;;;;;;4906346;29;20537;-74
2023/01/22 00:08:36;;;;;;;26.30;15.87;;;3.90;99.90;;;;;;4908104;29;20451;-75
2023/01/22 00:11:02;;;;;;;28.43;17.63;;;3.90;99.90;;;;;;4909722;29;20519;-73
2023/01/22 00:13:28;;;;;;;33.27;18.07;;;4.00;99.90;;;;;;4911083;29;20433;-74
2023/01/22 00:15:57;;;;;;;26.30;15.63;;;4.00;99.90;;;;;;4912227;29;20448;-74
2023/01/22 00:18:22;;;;;;;26.37;16.27;;;4.00;99.90;;;;;;4914795;29;20555;-74
2023/01/22 00:20:49;;;;;;;33.40;20.97;;;4.00;99.90;;;;;;4916205;29;20446;-74
2023/01/22 00:23:16;;;;;;;27.67;17.20;;;4.00;99.90;;;;;;4917546;29;20221;-75
2023/01/22 00:25:41;;;;;;;27.23;16.37;;;4.00;99.90;;;;;;4915889;29;20565;-74
2023/01/22 00:28:07;;;;;;;23.57;14.83;;;4.00;99.90;;;;;;4902331;29;20539;-75
2023/01/22 00:30:32;;;;;;;29.33;16.73;;;4.00;99.90;;;;;;4904159;29;20181;-74
2023/01/22 00:32:58;;;;;;;23.60;15.87;;;3.90;99.90;;;;;;4906911;29;20203;-75
2023/01/22 00:35:24;;;;;;;23.57;15.57;;;4.00;99.90;;;;;;4915255;29;20635;-75
2023/01/22 00:37:49;;;;;;;22.00;14.90;;;4.00;99.90;;;;;;4915819;29;20266;-75
2023/01/22 00:40:16;;;;;;;23.10;14.93;;;3.90;99.90;;;;;;4911489;29;20428;-75
2023/01/22 00:42:41;;;;;;;28.93;15.57;;;3.90;99.90;;;;;;4906561;29;20198;-75
2023/01/22 00:45:07;;;;;;;26.20;16.50;;;3.90;99.90;;;;;;4906608;29;20956;-74
2023/01/22 00:47:34;;;;;;;22.23;15.33;;;4.00;99.90;;;;;;4915461;29;20541;-75
2023/01/22 00:50:00;;;;;;;23.17;15.97;;;3.90;99.90;;;;;;4912716;29;20437;-75
2023/01/22 00:52:26;;;;;;;28.37;15.50;;;4.00;99.90;;;;;;4901002;29;20440;-75
2023/01/22 00:54:51;;;;;;;26.57;15.63;;;4.00;99.90;;;;;;4906423;29;20942;-75
2023/01/22 00:57:20;;;;;;;24.93;16.30;;;3.90;99.90;;;;;;4905027;29;20200;-74
2023/01/22 00:59:49;;;;;;;28.07;16.63;;;4.00;99.90;;;;;;4904814;29;20192;-73
2023/01/22 01:02:15;;;;;;;25.80;15.63;;;3.90;99.90;;;;;;4907659;29;20516;-75
2023/01/22 01:04:41;;;;;;;22.50;13.93;;;3.90;99.90;;;;;;4913908;29;20434;-74
2023/01/22 01:07:07;;;;;;;27.57;15.60;;;3.90;99.90;;;;;;4913608;29;21679;-73
2023/01/22 01:09:32;;;;;;;26.43;15.63;;;3.90;99.90;;;;;;4910185;29;20432;-74
2023/01/22 01:11:59;;;;;;;23.30;15.70;;;3.90;99.90;;;;;;4912045;29;20789;-75
2023/01/22 01:14:25;;;;;;;28.10;16.80;;;3.90;99.90;;;;;;4914270;29;20644;-74
2023/01/22 01:16:51;;;;;;;27.47;15.60;;;3.90;99.90;;;;;;4911818;29;20461;-73
2023/01/22 01:19:18;;;;;;;22.70;13.90;;;3.80;99.90;;;;;;4908074;29;20456;-75
2023/01/22 01:21:45;;;;;;;22.07;14.23;;;3.80;99.90;;;;;;4911018;29;20227;-74
2023/01/22 01:24:11;;;;;;;24.57;14.53;;;3.90;99.90;;;;;;4913050;29;20438;-72
2023/01/22 01:26:38;;;;;;;22.00;14.90;;;3.90;99.90;;;;;;4906023;29;20477;-72
2023/01/22 01:29:06;;;;;;;20.73;13.20;;;3.80;99.90;;;;;;4906230;29;20191;-73
2023/01/22 01:31:32;;;;;;;20.97;13.63;;;3.90;99.90;;;;;;4907622;29;20492;-73
2023/01/22 01:33:58;;;;;;;26.17;16.00;;;3.80;99.90;;;;;;4909497;29;20443;-73
2023/01/22 01:36:25;;;;;;;23.13;13.70;;;3.80;99.90;;;;;;4911403;29;20205;-73
2023/01/22 01:38:53;;;;;;;23.60;13.37;;;3.80;99.90;;;;;;4910762;29;20796;-73
2023/01/22 01:41:24;;;;;;;21.37;14.10;;;3.80;99.90;;;;;;4900943;29;20976;-73
2023/01/22 01:44:08;;;;;;;26.63;14.27;;;3.90;99.90;;;;;;4899037;29;20444;-73
2023/01/22 01:46:39;;;;;;;24.30;15.00;;;3.80;99.90;;;;;;4899245;29;20474;-76
2023/01/22 01:49:05;;;;;;;24.10;14.10;;;3.80;99.90;;;;;;4906870;29;20938;-76
2023/01/22 01:51:34;;;;;;;21.17;13.53;;;3.80;99.90;;;;;;4908819;29;20481;-75
2023/01/22 01:54:03;;;;;;;20.73;13.50;;;3.80;99.90;;;;;;4890948;29;20443;-74
2023/01/22 01:56:46;;;;;;;22.40;14.87;;;3.70;99.90;;;;;;4907335;29;20455;-75
2023/01/22 01:59:14;;;;;;;24.60;13.90;;;3.80;99.90;;;;;;4906959;29;20785;-74
2023/01/22 02:01:39;;;;;;;21.67;13.63;;;3.70;99.90;;;;;;4903603;29;20444;-72
2023/01/22 02:04:06;;;;;;;22.07;12.67;;;3.80;99.90;;;;;;4909066;29;20465;-72
2023/01/22 02:06:31;;;;;;;19.47;13.43;;;3.70;99.90;;;;;;4901059;29;20690;-72
2023/01/22 02:08:59;;;;;;;21.37;13.63;;;3.70;99.90;;;;;;4913045;29;20434;-72
2023/01/22 02:11:26;;;;;;;21.80;13.33;;;3.70;99.90;;;;;;4914412;29;20331;-72
2023/01/22 02:13:58;;;;;;;18.73;12.67;;;3.70;99.90;;;;;;4913761;29;20439;-74
2023/01/22 02:16:23;;;;;;;17.63;11.80;;;3.70;99.90;;;;;;4911873;29;20953;-74
2023/01/22 02:18:49;;;;;;;17.07;12.30;;;3.70;99.90;;;;;;4910135;29;20436;-74
2023/01/22 02:21:42;;;;;;;19.33;12.93;;;3.70;99.90;;;;;;4908517;29;20571;-74
2023/01/22 02:24:13;;;;;;;22.30;13.07;;;3.70;99.90;;;;;;4906498;29;20184;-74
2023/01/22 02:26:40;;;;;;;17.57;12.40;;;3.70;99.90;;;;;;4906613;29;20486;-74
2023/01/22 02:29:08;;;;;;;19.63;13.47;;;3.70;99.90;;;;;;4904786;29;20851;-72
2023/01/22 02:31:35;;;;;;;20.20;13.10;;;3.70;99.90;;;;;;4902988;29;20487;-72
2023/01/22 02:34:01;;;;;;;18.80;11.80;;;3.70;99.90;;;;;;4901483;29;20428;-72
2023/01/22 02:36:31;;;;;;;19.80;12.87;;;3.70;99.90;;;;;;4900205;29;20812;-72
2023/01/22 05:30:43;;;;;;;20.60;14.53;;;3.30;99.90;;;;;;5787962;23;20550;-73
2023/01/22 05:33:09;;;;;;;19.47;14.03;;;3.30;99.90;;;;;;4905445;29;20865;-72
2023/01/22 05:35:34;;;;;;;20.80;14.40;;;3.30;99.90;;;;;;4907175;29;20204;-72
2023/01/22 05:38:00;;;;;;;20.30;13.10;;;3.30;99.90;;;;;;4891760;29;20189;-72
2023/01/22 05:40:25;;;;;;;21.17;14.57;;;3.30;99.90;;;;;;4910310;29;20224;-72
2023/01/22 05:42:51;;;;;;;19.33;13.33;;;3.30;99.90;;;;;;4911929;29;20608;-73
2023/01/22 05:45:17;;;;;;;20.10;13.57;;;3.30;99.90;;;;;;4896845;29;20197;-73
2023/01/22 05:47:42;;;;;;;19.23;13.77;;;3.30;99.90;;;;;;4915042;29;20198;-73
2023/01/22 05:50:08;;;;;;;17.43;13.10;;;3.30;99.90;;;;;;4906330;29;20599;-75
2023/01/22 05:52:34;;;;;;;22.60;12.80;;;3.30;99.90;;;;;;4899717;29;20244;-73
2023/01/22 05:55:00;;;;;;;23.33;14.33;;;3.30;99.90;;;;;;4912171;29;20428;-73
2023/01/22 05:57:28;;;;;;;19.47;12.80;;;3.30;99.90;;;;;;4913015;29;20186;-72
2023/01/22 05:59:54;;;;;;;18.87;12.90;;;3.30;99.90;;;;;;4904051;29;20521;-72
2023/01/22 06:02:19;;;;;;;21.97;14.70;;;3.30;99.90;;;;;;4909701;29;20475;-71
2023/01/22 06:04:45;;;;;;;19.10;13.80;;;3.30;99.90;;;;;;4908053;29;20187;-73
2023/01/22 06:07:10;;;;;;;19.27;13.33;;;3.30;99.90;;;;;;4905987;29;20208;-75
2023/01/22 06:09:36;;;;;;;20.23;13.77;;;3.40;99.90;;;;;;4910009;29;20188;-75
2023/01/22 06:12:01;;;;;;;19.17;12.63;;;3.40;99.90;;;;;;4908320;29;20187;-74
2023/01/22 06:14:27;;;;;;;19.00;13.37;;;3.30;99.90;;;;;;4901325;29;20188;-75
2023/01/22 06:16:52;;;;;;;22.80;15.63;;;3.30;99.90;;;;;;4898881;29;20191;-75
2023/01/22 06:19:18;;;;;;;22.33;14.10;;;3.40;99.90;;;;;;4899298;29;20212;-75
2023/01/22 06:21:43;;;;;;;20.00;13.37;;;3.40;99.90;;;;;;4900425;29;20277;-75
2023/01/22 06:24:09;;;;;;;17.93;12.40;;;3.40;99.90;;;;;;4911189;29;20190;-71
2023/01/22 06:26:35;;;;;;;20.90;13.27;;;3.40;99.90;;;;;;4910989;29;20222;-75
2023/01/22 06:29:01;;;;;;;23.00;15.43;;;3.40;99.90;;;;;;4909715;29;20886;-75
2023/01/22 06:31:26;;;;;;;19.00;14.70;;;3.40;99.90;;;;;;4907918;29;20247;-76
2023/01/22 06:33:53;;;;;;;19.03;12.80;;;3.40;99.90;;;;;;4906682;29;20236;-75
2023/01/22 06:36:18;;;;;;;20.13;14.40;;;3.40;99.90;;;;;;4904686;29;20203;-76
2023/01/22 06:38:45;;;;;;;22.93;14.07;;;3.40;99.90;;;;;;4903162;29;20437;-75
2023/01/22 06:41:10;;;;;;;18.83;12.30;;;3.50;99.90;;;;;;4900121;29;20190;-72
2023/01/22 06:43:36;;;;;;;18.10;13.07;;;3.50;99.90;;;;;;4898462;29;20844;-71
2023/01/22 06:46:02;;;;;;;20.67;13.00;;;3.50;99.90;;;;;;4902141;29;20270;-71
2023/01/22 06:48:28;;;;;;;17.70;12.67;;;3.50;99.90;;;;;;4913916;29;20250;-71
2023/01/22 06:50:58;;;;;;;16.87;11.87;;;3.50;99.90;;;;;;4912023;29;20454;-72
2023/01/22 06:53:24;;;;;;;16.77;11.80;;;3.50;99.90;;;;;;4910582;29;20333;-74
2023/01/22 06:55:50;;;;;;;18.43;12.60;;;3.50;99.90;;;;;;4906640;29;20432;-72
2023/01/22 06:58:16;;;;;;;14.37;11.27;;;3.40;99.90;;;;;;4906987;29;20448;-73
2023/01/22 07:00:42;;;;;;;20.77;11.33;;;3.50;99.90;;;;;;4904747;29;20199;-72
2023/01/22 07:03:07;;;;;;;16.90;11.40;;;3.50;99.90;;;;;;4906575;29;20183;-72
2023/01/22 07:05:34;;;;;;;15.23;11.27;;;3.50;99.90;;;;;;4908702;29;20686;-74
2023/01/22 07:08:00;;;;;;;15.47;11.67;;;3.40;99.90;;;;;;4912390;29;20524;-75
2023/01/22 07:10:26;;;;;;;16.30;11.97;;;3.40;99.90;;;;;;4912124;29;20470;-74
2023/01/22 07:12:55;;;;;;;18.80;11.87;;;3.50;99.90;;;;;;4896940;29;20467;-73
2023/01/22 07:15:21;;;;;;;17.07;12.40;;;3.40;99.90;;;;;;4898409;29;20653;-74
2023/01/22 07:17:51;;;;;;;19.03;12.57;;;3.50;99.90;;;;;;4909723;29;20440;-73
2023/01/22 07:20:18;;;;;;;17.67;12.30;;;3.50;99.90;;;;;;4885145;29;20685;-74
2023/01/22 07:22:43;;;;;;;20.07;13.53;;;3.40;99.90;;;;;;4898542;29;20444;-73
2023/01/22 07:25:09;;;;;;;20.43;12.50;;;3.40;99.90;;;;;;4914094;29;20955;-71
2023/01/22 07:27:36;;;;;;;19.23;12.70;;;3.40;99.90;;;;;;4909251;29;20191;-72
2023/01/22 07:30:02;;;;;;;19.57;13.50;;;3.40;99.90;;;;;;4912011;29;20184;-71
2023/01/22 07:32:27;;;;;;;16.70;11.53;;;3.40;99.90;;;;;;4908011;29;20932;-71
2023/01/22 07:34:52;;;;;;;15.93;13.13;;;3.40;99.90;;;;;;4913390;29;20440;-71
2023/01/22 07:37:18;;;;;;;20.37;12.80;;;3.40;99.90;;;;;;4903011;29;20193;-71
2023/01/22 07:39:44;;;;;;;20.27;14.73;;;3.40;99.90;;;;;;4918678;29;20256;-73
2023/01/22 07:42:11;;;;;;;18.90;12.90;;;3.50;99.90;;;;;;4917240;29;20183;-71
2023/01/22 07:44:39;;;;;;;19.93;12.53;;;3.40;99.90;;;;;;4910345;29;20203;-72
2023/01/22 07:47:05;;;;;;;19.30;13.17;;;3.40;99.90;;;;;;4904329;29;20847;-71
2023/01/22 07:49:30;;;;;;;19.70;13.20;;;3.40;99.90;;;;;;4905969;29;20782;-70
2023/01/22 07:51:56;;;;;;;26.13;14.73;;;3.40;99.90;;;;;;4906166;29;20438;-71
2023/01/22 07:54:21;;;;;;;20.50;14.13;;;3.40;99.90;;;;;;4908858;29;20738;-70
2023/01/22 07:56:48;;;;;;;19.00;12.90;;;3.40;99.90;;;;;;4910844;29;20212;-72
2023/01/22 07:59:14;;;;;;;21.23;14.40;;;3.40;99.90;;;;;;4906845;29;20184;-69
2023/01/22 08:01:39;;;;;;;20.50;13.80;;;3.40;99.90;;;;;;4903278;29;20436;-69
2023/01/22 08:04:05;;;;;;;22.47;13.70;;;3.50;99.90;;;;;;4901854;29;20979;-69
2023/01/22 08:06:31;;;;;;;18.03;12.73;;;3.50;99.90;;;;;;4899743;29;20323;-70
2023/01/22 08:08:58;;;;;;;18.37;13.80;;;3.50;99.90;;;;;;4900442;29;20243;-72
2023/01/22 08:11:24;;;;;;;20.70;13.23;;;3.50;99.90;;;;;;4901970;29;20597;-70
2023/01/22 08:13:49;;;;;;;18.20;14.13;;;3.50;99.90;;;;;;4904525;29;20538;-71
2023/01/22 08:16:15;;;;;;;22.03;14.30;;;3.50;99.90;;;;;;4912727;29;20538;-71
2023/01/22 08:18:40;;;;;;;17.13;13.07;;;3.50;99.90;;;;;;4910393;29;20197;-71
2023/01/22 08:21:06;;;;;;;20.30;15.27;;;3.50;99.90;;;;;;4908438;29;20203;-70
2023/01/22 08:23:32;;;;;;;20.83;16.30;;;3.50;99.90;;;;;;4906001;29;20765;-73
2023/01/22 08:25:59;;;;;;;24.07;15.20;;;3.60;99.90;;;;;;4905959;29;20224;-73
2023/01/22 08:28:25;;;;;;;18.20;14.10;;;3.70;99.90;;;;;;4909345;29;20430;-71
2023/01/22 08:30:50;;;;;;;19.33;13.77;;;3.70;99.90;;;;;;4907835;29;20290;-71
2023/01/22 08:33:16;;;;;;;17.90;13.30;;;3.70;99.90;;;;;;4905381;29;20188;-71
2023/01/22 08:35:42;;;;;;;17.20;12.90;;;3.70;99.90;;;;;;4909162;29;20191;-71
2023/01/22 08:38:07;;;;;;;21.70;14.17;;;3.70;99.90;;;;;;4912990;29;20340;-71
2023/01/22 08:40:33;;;;;;;19.43;14.40;;;3.80;99.90;;;;;;4911135;29;20247;-70
2023/01/22 08:42:58;;;;;;;20.27;14.73;;;3.70;99.90;;;;;;4906831;29;20630;-70
2023/01/22 08:45:24;;;;;;;16.10;11.50;;;3.70;99.90;;;;;;4909060;29;20562;-70
2023/01/22 08:47:54;;;;;;;23.40;15.07;;;3.70;99.90;;;;;;4908850;29;20192;-73
2023/01/22 08:50:19;;;;;;;20.40;16.33;;;3.70;99.90;;;;;;4909634;29;20491;-72
2023/01/22 08:52:45;;;;;;;23.00;16.60;;;3.80;99.90;;;;;;4911342;29;20648;-72
2023/01/22 08:55:10;;;;;;;23.63;16.43;;;3.90;99.90;;;;;;4913004;29;20183;-72
2023/01/22 08:57:36;;;;;;;20.80;14.93;;;3.90;99.90;;;;;;4915086;29;20195;-72
2023/01/22 09:00:03;;;;;;;22.30;14.70;;;3.90;99.90;;;;;;4903678;29;20281;-72
2023/01/22 09:02:28;;;;;;;19.67;13.97;;;3.90;99.90;;;;;;4903713;29;20217;-72
2023/01/22 09:04:54;;;;;;;22.03;14.63;;;4.00;99.90;;;;;;4913135;29;20522;-72
2023/01/22 09:07:20;;;;;;;21.30;13.50;;;4.00;99.90;;;;;;4914814;29;20572;-72
2023/01/22 09:09:45;;;;;;;25.07;15.80;;;4.10;99.90;;;;;;4912683;29;20621;-72
2023/01/22 09:12:11;;;;;;;25.80;16.20;;;4.00;99.90;;;;;;4905840;29;20597;-72
2023/01/22 09:14:36;;;;;;;20.90;14.13;;;4.10;99.90;;;;;;4907889;29;20193;-72
2023/01/22 09:17:02;;;;;;;21.67;14.73;;;4.10;99.90;;;;;;4909401;29;20574;-72
2023/01/22 09:19:27;;;;;;;20.40;14.40;;;4.10;99.90;;;;;;4909076;29;20182;-72
2023/01/22 09:21:53;;;;;;;19.43;14.53;;;4.10;99.90;;;;;;4904431;29;20258;-72
2023/01/22 09:24:18;;;;;;;20.70;14.57;;;4.10;99.90;;;;;;4902998;29;20692;-72
2023/01/22 09:26:44;;;;;;;22.93;15.43;;;4.10;99.90;;;;;;4900828;29;20211;-72
2023/01/22 09:29:09;;;;;;;20.47;15.20;;;4.20;99.90;;;;;;4903081;29;20314;-72
2023/01/22 09:31:36;;;;;;;24.97;14.87;;;4.10;99.90;;;;;;4900436;29;20253;-72
2023/01/22 09:34:03;;;;;;;19.27;13.70;;;4.10;99.90;;;;;;4902152;29;20234;-72
2023/01/22 09:36:29;;;;;;;19.53;14.43;;;4.10;99.90;;;;;;4911878;29;20448;-74
2023/01/22 09:38:55;;;;;;;19.70;13.77;;;4.20;99.90;;;;;;4911181;29;20955;-73
2023/01/22 09:41:36;;;;;;;18.23;13.70;;;4.20;99.90;;;;;;4907482;29;20188;-73
2023/01/22 09:44:21;;;;;;;18.13;13.60;;;4.20;99.90;;;;;;4908771;29;20975;-72
2023/01/22 09:47:03;;;;;;;17.50;12.60;;;4.20;99.90;;;;;;4905215;29;20479;-72
2023/01/22 09:49:56;;;;;;;18.47;14.00;;;4.20;99.90;;;;;;4912378;29;20438;-72
2023/01/22 09:52:30;;;;;;;17.37;14.30;;;4.30;99.90;;;;;;4913685;29;20452;-72
2023/01/22 09:54:56;;;;;;;17.53;12.43;;;4.20;99.90;;;;;;4899855;29;20511;-73
2023/01/22 09:57:22;;;;;;;18.60;12.70;;;4.30;99.90;;;;;;4898896;29;20530;-73
2023/01/22 09:59:51;;;;;;;19.10;12.37;;;4.30;99.90;;;;;;4903235;29;20338;-73
2023/01/22 10:02:28;;;;;;;17.27;12.63;;;4.30;99.90;;;;;;4908316;29;20199;-73
2023/01/22 10:05:02;;;;;;;20.40;13.60;;;4.40;99.90;;;;;;4911857;29;20533;-73
2023/01/22 10:07:38;;;;;;;17.13;12.67;;;4.40;99.90;;;;;;4906547;29;20493;-74
2023/01/22 10:10:23;;;;;;;17.10;12.73;;;4.30;99.90;;;;;;4891010;29;20923;-72
2023/01/22 10:13:13;;;;;;;18.97;13.30;;;4.30;99.90;;;;;;4908515;29;20446;-73
2023/01/22 10:15:38;;;;;;;18.10;12.20;;;4.40;99.90;;;;;;4895842;29;20967;-71
2023/01/22 10:18:19;;;;;;;16.50;11.97;;;4.40;99.90;;;;;;4901832;29;20445;-71
2023/01/22 10:20:44;;;;;;;15.80;11.57;;;4.40;99.90;;;;;;4900180;29;20552;-72
2023/01/22 10:23:19;;;;;;;15.60;11.37;;;4.40;99.90;;;;;;4904508;29;20440;-72
2023/01/22 10:25:45;;;;;;;18.10;11.33;;;4.50;99.90;;;;;;4898500;29;20219;-71
2023/01/22 10:28:13;;;;;;;17.50;13.50;;;4.50;99.90;;;;;;4883476;29;20451;-73
2023/01/22 10:30:46;;;;;;;18.40;12.40;;;4.50;99.90;;;;;;4901558;29;20828;-72
2023/01/22 10:33:21;;;;;;;20.80;14.10;;;4.50;99.90;;;;;;4902850;29;20474;-73
2023/01/22 10:35:49;;;;;;;17.53;11.50;;;4.50;99.90;;;;;;4908187;29;20443;-72
2023/01/22 10:38:22;;;;;;;19.33;11.70;;;4.50;99.90;;;;;;4907668;29;20543;-72
2023/01/22 10:41:02;;;;;;;18.20;12.50;;;4.60;99.90;;;;;;4908151;29;20458;-73
2023/01/22 10:43:35;;;;;;;16.53;12.90;;;4.60;99.90;;;;;;4910268;29;20526;-72
2023/01/22 10:46:19;;;;;;;18.10;11.87;;;4.60;99.90;;;;;;4911087;29;20472;-72
2023/01/22 10:48:58;;;;;;;16.80;12.57;;;4.60;99.90;;;;;;4909530;29;20786;-71
2023/01/22 10:51:31;;;;;;;15.90;11.37;;;4.60;99.90;;;;;;4912603;29;20462;-71
2023/01/22 10:53:58;;;;;;;18.00;12.97;;;4.60;99.90;;;;;;4912952;29;20907;-71
2023/01/22 10:56:33;;;;;;;15.37;11.90;;;4.60;99.90;;;;;;4912444;29;20441;-72
2023/01/22 10:59:03;;;;;;;18.40;13.00;;;4.60;99.90;;;;;;4915128;29;20435;-73
2023/01/22 11:01:31;;;;;;;16.83;11.93;;;4.60;99.90;;;;;;4918776;29;20443;-72
2023/01/22 11:03:56;;;;;;;19.23;13.07;;;4.60;99.90;;;;;;4918089;29;20435;-73
2023/01/22 11:06:27;;;;;;;17.83;13.37;;;4.60;99.90;;;;;;4918825;29;20486;-73
2023/01/22 11:09:14;;;;;;;18.47;13.20;;;4.60;99.90;;;;;;4915812;29;20173;-72
2023/01/22 11:11:46;;;;;;;18.67;13.80;;;4.60;99.90;;;;;;4914864;29;20440;-71
2023/01/22 11:14:36;;;;;;;18.27;13.60;;;4.60;99.90;;;;;;4914424;29;20437;-72
2023/01/22 11:17:25;;;;;;;17.80;12.77;;;4.60;99.90;;;;;;4912592;29;20546;-72
2023/01/22 11:19:59;;;;;;;24.33;15.10;;;4.60;99.90;;;;;;4903989;29;20463;-73
2023/01/22 11:22:37;;;;;;;21.23;13.77;;;4.60;99.90;;;;;;4907472;29;20438;-72
2023/01/22 11:25:04;;;;;;;17.53;13.10;;;4.60;99.90;;;;;;4914656;29;20519;-73
2023/01/22 11:27:36;;;;;;;18.20;13.17;;;4.60;99.90;;;;;;4916583;29;20577;-73
2023/01/22 11:30:46;;;;;;;20.00;14.90;;;4.60;99.90;;;;;;4914933;29;20435;-74
2023/01/22 11:33:26;;;;;;;18.13;13.33;;;4.60;99.90;;;;;;4889673;29;20487;-71
2023/01/22 11:36:15;;;;;;;18.00;14.07;;;4.60;99.90;;;;;;4913452;29;20454;-70
2023/01/22 11:39:12;;;;;;;16.90;12.00;;;4.60;99.90;;;;;;4914160;29;20435;-71
2023/01/22 11:41:57;;;;;;;18.93;12.60;;;4.50;99.90;;;;;;4914859;29;20862;-73
2023/01/22 11:44:35;;;;;;;18.43;13.20;;;4.60;99.90;;;;;;4909075;29;20431;-69
2023/01/22 11:47:08;;;;;;;20.10;15.10;;;4.50;99.90;;;;;;4910857;29;20864;-71
2023/01/22 11:49:47;;;;;;;21.27;13.97;;;4.60;99.90;;;;;;4912713;29;20510;-69
2023/01/22 11:52:16;;;;;;;15.10;12.23;;;4.60;99.90;;;;;;4913423;29;20531;-71
2023/01/22 11:55:03;;;;;;;20.23;13.23;;;4.60;99.90;;;;;;4914995;29;20467;-71
2023/01/22 11:57:52;;;;;;;21.37;13.83;;;4.60;99.90;;;;;;4912060;29;20837;-71
2023/01/22 12:00:46;;;;;;;19.40;13.13;;;4.60;99.90;;;;;;4917111;29;20492;-72
2023/01/22 12:03:43;;;;;;;17.43;12.10;;;4.60;99.90;;;;;;4916949;29;20434;-73
2023/01/22 12:06:30;;;;;;;20.07;13.97;;;4.60;99.90;;;;;;4917005;29;20477;-71
2023/01/22 12:09:14;;;;;;;21.63;14.50;;;4.60;99.90;;;;;;4914068;29;20440;-71
2023/01/22 12:11:57;;;;;;;18.37;13.20;;;4.60;99.90;;;;;;4908469;29;20440;-69
2023/01/22 12:14:41;;;;;;;18.27;12.77;;;4.70;99.90;;;;;;4903441;29;20497;-70
2023/01/22 12:17:25;;;;;;;20.00;14.60;;;4.70;99.90;;;;;;4913632;29;20439;-71
2023/01/22 12:20:07;;;;;;;18.80;13.70;;;4.70;99.90;;;;;;4913983;29;20545;-75
2023/01/22 12:22:50;;;;;;;18.23;13.50;;;4.70;99.90;;;;;;4914712;29;20800;-71
2023/01/22 12:25:26;;;;;;;18.10;12.90;;;4.80;99.90;;;;;;4914911;29;20430;-75
2023/01/22 12:28:06;;;;;;;22.80;13.43;;;4.80;99.90;;;;;;4906723;29;20444;-74
2023/01/22 12:30:56;;;;;;;18.50;13.73;;;4.80;99.90;;;;;;4908949;29;20468;-72
2023/01/22 12:33:26;;;;;;;19.43;14.60;;;4.70;99.90;;;;;;4912797;29;20451;-73
2023/01/22 12:35:55;;;;;;;20.60;13.67;;;4.70;99.90;;;;;;4912914;29;20849;-74
2023/01/22 12:38:50;;;;;;;16.60;13.97;;;4.70;99.90;;;;;;4913738;29;20440;-75
2023/01/22 12:42:02;;;;;;;18.80;13.83;;;4.60;99.90;;;;;;4911066;29;20450;-76
2023/01/22 12:44:44;;;;;;;24.20;14.90;;;4.70;99.90;;;;;;4888760;29;20443;-76
2023/01/22 12:47:20;;;;;;;20.03;14.17;;;4.70;99.90;;;;;;4915499;29;20479;-75
2023/01/22 12:49:51;;;;;;;23.77;15.07;;;4.70;99.90;;;;;;4917239;29;20636;-76
2023/01/22 12:52:29;;;;;;;20.50;15.40;;;4.80;99.90;;;;;;4917585;29;20478;-75
2023/01/22 12:54:55;;;;;;;18.37;13.20;;;4.70;99.90;;;;;;4912932;29;20928;-74
2023/01/22 12:57:20;;;;;;;19.80;14.00;;;4.70;99.90;;;;;;4910563;29;20453;-80
2023/01/22 12:59:51;;;;;;;19.10;13.40;;;4.80;99.90;;;;;;4905229;29;20474;-79
2023/01/22 13:02:29;;;;;;;19.37;13.87;;;4.80;99.90;;;;;;4911716;29;20270;-78
2023/01/22 13:04:56;;;;;;;22.10;15.43;;;4.80;99.90;;;;;;4913762;29;20526;-76
2023/01/22 13:07:30;;;;;;;21.07;14.37;;;4.80;99.90;;;;;;4911531;29;21096;-77
2023/01/22 13:10:23;;;;;;;24.77;14.37;;;4.80;99.90;;;;;;4912575;29;20465;-76
2023/01/22 13:12:51;;;;;;;20.07;13.03;;;4.80;99.90;;;;;;4905608;29;20853;-77
2023/01/22 13:15:22;;;;;;;16.23;13.10;;;4.80;99.90;;;;;;4906855;29;20467;-75
2023/01/22 13:18:18;;;;;;;20.57;13.77;;;4.80;99.90;;;;;;4906028;29;20845;-75
2023/01/22 13:21:09;;;;;;;18.53;14.13;;;4.90;99.90;;;;;;4907478;29;20432;-73
2023/01/22 13:23:42;;;;;;;20.93;15.10;;;4.90;99.90;;;;;;4892014;29;21018;-70
2023/01/22 13:26:21;;;;;;;22.00;15.17;;;4.90;99.90;;;;;;4904058;29;20860;-70
2023/01/22 13:28:56;;;;;;;20.07;14.60;;;4.90;99.90;;;;;;4902369;29;20853;-69
2023/01/22 13:31:23;;;;;;;20.00;14.43;;;4.90;99.90;;;;;;4900321;29;20559;-69
2023/01/22 13:34:13;;;;;;;21.00;14.60;;;5.00;99.90;;;;;;4899069;29;20852;-72
2023/01/22 13:36:45;;;;;;;18.20;12.10;;;5.00;99.90;;;;;;4892925;29;20442;-73
2023/01/22 13:39:24;;;;;;;17.40;14.00;;;5.00;99.90;;;;;;4902502;29;20456;-74
2023/01/22 13:41:52;;;;;;;23.53;15.73;;;5.00;99.90;;;;;;4912900;29;20506;-72
2023/01/22 13:44:25;;;;;;;22.17;14.17;;;5.00;99.90;;;;;;4911061;29;20849;-72
2023/01/22 13:46:51;;;;;;;22.13;15.47;;;5.00;99.90;;;;;;4907862;29;20815;-72
2023/01/22 13:49:26;;;;;;;27.30;17.03;;;5.00;99.90;;;;;;4907433;29;20531;-71
2023/01/22 13:51:52;;;;;;;22.57;13.93;;;5.00;99.90;;;;;;4905303;29;20978;-70
2023/01/22 13:54:25;;;;;;;25.07;17.00;;;5.00;99.90;;;;;;4904433;29;20440;-71
2023/01/22 13:56:51;;;;;;;22.80;15.90;;;5.00;99.90;;;;;;4901525;29;20449;-71
2023/01/22 13:59:18;;;;;;;27.63;16.27;;;5.00;99.90;;;;;;4899839;29;20978;-69
2023/01/22 14:01:44;;;;;;;19.43;14.07;;;5.00;99.90;;;;;;4897837;29;20196;-70
2023/01/22 14:04:26;;;;;;;21.27;15.70;;;5.00;99.90;;;;;;4898223;29;20461;-69
2023/01/22 14:06:52;;;;;;;20.50;15.03;;;5.00;99.90;;;;;;4900287;29;20611;-72
2023/01/22 14:09:25;;;;;;;24.03;16.20;;;5.10;99.90;;;;;;4908937;29;20511;-73
2023/01/22 14:11:51;;;;;;;22.53;16.07;;;5.10;99.90;;;;;;4910354;29;20192;-73
2023/01/22 14:14:18;;;;;;;29.43;17.23;;;5.00;99.90;;;;;;4905667;29;20840;-70
2023/01/22 14:16:44;;;;;;;23.77;15.67;;;5.00;99.90;;;;;;4906599;29;20202;-73
2023/01/22 14:19:10;;;;;;;27.43;16.20;;;5.00;99.90;;;;;;4908828;29;20436;-72
2023/01/22 14:21:36;;;;;;;22.33;15.37;;;5.10;99.90;;;;;;4905137;29;20204;-76
2023/01/22 14:24:02;;;;;;;25.80;16.00;;;5.00;99.90;;;;;;4910376;29;20651;-78
2023/01/22 14:26:28;;;;;;;21.63;14.60;;;5.10;99.90;;;;;;4915141;29;20483;-72
2023/01/22 14:28:54;;;;;;;20.00;13.73;;;5.10;99.90;;;;;;4909481;29;20463;-71
2023/01/22 14:31:19;;;;;;;28.13;15.03;;;5.10;99.90;;;;;;4909767;29;20268;-72
2023/01/22 14:33:45;;;;;;;24.90;16.93;;;5.10;99.90;;;;;;4911605;29;20190;-73
2023/01/22 14:36:10;;;;;;;26.73;16.07;;;5.10;99.90;;;;;;4911877;29;20180;-73
2023/01/22 14:38:36;;;;;;;21.77;15.07;;;5.10;99.90;;;;;;4913255;29;20176;-71
2023/01/22 14:41:05;;;;;;;25.70;15.83;;;5.10;99.90;;;;;;4915484;29;20182;-71
2023/01/22 14:43:31;;;;;;;22.80;15.33;;;5.10;99.90;;;;;;4913638;29;20230;-72
2023/01/22 14:45:56;;;;;;;23.60;16.10;;;5.00;99.90;;;;;;4914819;29;20552;-72
2023/01/22 14:48:22;;;;;;;26.50;16.90;;;5.00;99.90;;;;;;4913588;29;20279;-72
2023/01/22 14:50:49;;;;;;;30.60;14.80;;;5.00;99.90;;;;;;4911013;29;20543;-71
2023/01/22 14:53:16;;;;;;;21.70;16.70;;;5.00;99.90;;;;;;4910729;29;20211;-71
2023/01/22 14:55:44;;;;;;;25.50;17.63;;;5.00;99.90;;;;;;4910799;29;20945;-71
2023/01/22 14:58:10;;;;;;;26.43;16.90;;;5.10;99.90;;;;;;4909959;29;20969;-71
2023/01/22 15:00:36;;;;;;;29.70;15.83;;;5.10;99.90;;;;;;4910645;29;20527;-72
2023/01/22 15:03:02;;;;;;;23.93;16.07;;;5.10;99.90;;;;;;4913013;29;20819;-73
2023/01/22 15:05:28;;;;;;;25.70;16.90;;;5.10;99.90;;;;;;4913799;29;20435;-74
2023/01/22 15:07:54;;;;;;;26.57;16.03;;;5.10;99.90;;;;;;4913386;29;20191;-71
2023/01/22 15:10:20;;;;;;;23.10;16.00;;;5.10;99.90;;;;;;4913907;29;20451;-71
2023/01/22 15:12:47;;;;;;;28.37;14.03;;;5.10;99.90;;;;;;4913338;29;20446;-71
2023/01/22 15:15:21;;;;;;;26.23;16.33;;;5.10;99.90;;;;;;4910801;29;20502;-71
2023/01/22 15:17:49;;;;;;;28.67;15.80;;;5.10;99.90;;;;;;4911676;29;20450;-70
2023/01/22 15:20:15;;;;;;;28.13;19.27;;;5.10;99.90;;;;;;4911099;29;20435;-77
2023/01/22 15:22:40;;;;;;;23.77;15.77;;;5.10;99.90;;;;;;4908691;29;20188;-74
2023/01/22 15:25:06;;;;;;;27.17;18.07;;;5.00;99.90;;;;;;4907878;29;20799;-73
2023/01/22 15:27:32;;;;;;;35.17;23.67;;;5.00;99.90;;;;;;4909290;29;20213;-74
2023/01/22 15:29:58;;;;;;;38.30;23.27;;;5.00;99.90;;;;;;4911407;29;20428;-70
2023/01/22 15:32:23;;;;;;;35.40;19.10;;;5.00;99.90;;;;;;4910967;29;20266;-75
2023/01/22 15:34:49;;;;;;;26.30;15.20;;;5.00;99.90;;;;;;4913169;29;20175;-72
2023/01/22 15:37:14;;;;;;;20.33;14.67;;;5.00;99.90;;;;;;4906206;29;20222;-71
2023/01/22 15:39:40;;;;;;;23.00;15.03;;;5.00;99.90;;;;;;4906350;29;20188;-70
2023/01/22 15:42:07;;;;;;;23.03;15.70;;;5.00;99.90;;;;;;4907924;29;20191;-71